LROP/OTP METAR and TAF weather

Enter ICAO airport designator
Station Type Date Time Source
LROP METAR 2020/06/06 21:30 UTC NOAA

LROP 062130Z 08006KT CAVOK 20/12 Q1009 NOSIG


Station Type Date Time Source
LROP Decoded METAR 2020/06/06 21:30 UTC NOAA

Bucuresti Otopeni, Romania (LROP) 44-33N 026-06E 95M
Jun 06, 2020 - 05:30 PM EDT / 2020.06.06 2130 UTC
Wind: from the E (080 degrees) at 7 MPH (6 KT):0
Visibility: greater than 7 mile(s):0
Temperature: 68 F (20 C)
Dew Point: 53 F (12 C)
Relative Humidity: 59%
Pressure (altimeter): 29.80 in. Hg (1009 hPa)
ob: LROP 062130Z 08006KT CAVOK 20/12 Q1009 NOSIG
cycle: 21

Station Type Date Time Source
LROP TAF 2020/06/06 18:33 UTC NOAA

TAF LROP 061700Z 0618/0718 07008KT CAVOK
TEMPO 0618/0622 13010KT SCT040CB
TEMPO 0714/0718 VRB20KT -TSRA SCT040CB

Example: see airport list